sensor_id;sensor_type;location;lat;lon;timestamp;P1;durP1;ratioP1;P2;durP2;ratioP2
43527;SDS011;52359;42.658;23.320;2023-04-12T04:58:18;22.05;;;14.15;;
43527;SDS011;52359;42.658;23.320;2023-04-12T05:00:43;20.98;;;14.50;;
43527;SDS011;52359;42.658;23.320;2023-04-12T05:03:09;20.80;;;14.15;;
43527;SDS011;52359;42.658;23.320;2023-04-12T05:05:35;22.95;;;12.27;;
43527;SDS011;52359;42.658;23.320;2023-04-12T05:08:02;22.70;;;13.30;;
43527;SDS011;52359;42.658;23.320;2023-04-12T05:10:27;19.60;;;12.60;;
43527;SDS011;52359;42.658;23.320;2023-04-12T05:12:53;32.45;;;13.00;;
43527;SDS011;52359;42.658;23.320;2023-04-12T05:15:18;18.60;;;12.10;;
43527;SDS011;52359;42.658;23.320;2023-04-12T05:17:45;17.02;;;11.30;;
43527;SDS011;52359;42.658;23.320;2023-04-12T05:20:10;15.68;;;11.05;;
43527;SDS011;52359;42.658;23.320;2023-04-12T05:22:36;15.77;;;10.68;;
43527;SDS011;52359;42.658;23.320;2023-04-12T05:25:02;17.55;;;10.30;;
43527;SDS011;52359;42.658;23.320;2023-04-12T05:27:28;13.77;;;9.73;;
43527;SDS011;52359;42.658;23.320;2023-04-12T05:29:58;16.10;;;9.73;;
43527;SDS011;52359;42.658;23.320;2023-04-12T05:32:24;13.02;;;8.90;;
43527;SDS011;52359;42.658;23.320;2023-04-12T05:34:50;16.75;;;9.88;;
43527;SDS011;52359;42.658;23.320;2023-04-12T05:37:16;13.20;;;8.77;;
43527;SDS011;52359;42.658;23.320;2023-04-12T05:39:42;16.42;;;8.32;;
43527;SDS011;52359;42.658;23.320;2023-04-12T05:42:08;9.68;;;7.57;;
43527;SDS011;52359;42.658;23.320;2023-04-12T05:44:34;10.52;;;7.65;;
43527;SDS011;52359;42.658;23.320;2023-04-12T05:47:02;10.77;;;7.43;;
43527;SDS011;52359;42.658;23.320;2023-04-12T05:49:29;10.90;;;7.47;;
43527;SDS011;52359;42.658;23.320;2023-04-12T05:51:57;16.70;;;6.93;;
43527;SDS011;52359;42.658;23.320;2023-04-12T05:54:23;11.23;;;6.72;;
43527;SDS011;52359;42.658;23.320;2023-04-12T05:56:49;11.05;;;7.22;;
43527;SDS011;52359;42.658;23.320;2023-04-12T05:59:16;13.30;;;7.55;;
43527;SDS011;52359;42.658;23.320;2023-04-12T06:01:43;11.05;;;6.88;;
43527;SDS011;52359;42.658;23.320;2023-04-12T06:04:09;9.10;;;5.90;;
43527;SDS011;52359;42.658;23.320;2023-04-12T06:06:35;14.00;;;5.95;;
43527;SDS011;52359;42.658;23.320;2023-04-12T06:09:01;14.45;;;5.43;;
43527;SDS011;52359;42.658;23.320;2023-04-12T06:11:28;9.80;;;5.78;;
43527;SDS011;52359;42.658;23.320;2023-04-12T06:13:55;7.72;;;5.32;;
43527;SDS011;52359;42.658;23.320;2023-04-12T06:16:21;9.23;;;6.10;;
43527;SDS011;52359;42.658;23.320;2023-04-12T06:18:46;9.10;;;5.78;;
43527;SDS011;52359;42.658;23.320;2023-04-12T06:21:12;11.45;;;5.55;;
43527;SDS011;52359;42.658;23.320;2023-04-12T06:23:38;9.18;;;5.45;;
43527;SDS011;52359;42.658;23.320;2023-04-12T06:26:03;7.88;;;5.68;;
43527;SDS011;52359;42.658;23.320;2023-04-12T06:28:30;10.48;;;6.07;;
43527;SDS011;52359;42.658;23.320;2023-04-12T06:30:55;11.13;;;6.05;;
43527;SDS011;52359;42.658;23.320;2023-04-12T06:33:21;12.50;;;6.57;;
43527;SDS011;52359;42.658;23.320;2023-04-12T06:35:47;8.50;;;5.57;;
43527;SDS011;52359;42.658;23.320;2023-04-12T06:38:13;10.57;;;6.07;;
43527;SDS011;52359;42.658;23.320;2023-04-12T06:40:39;10.25;;;5.57;;
43527;SDS011;52359;42.658;23.320;2023-04-12T06:43:04;13.40;;;6.35;;
43527;SDS011;52359;42.658;23.320;2023-04-12T06:45:30;8.60;;;5.32;;
43527;SDS011;52359;42.658;23.320;2023-04-12T06:47:56;10.93;;;5.10;;
43527;SDS011;52359;42.658;23.320;2023-04-12T06:50:22;8.05;;;4.68;;
43527;SDS011;52359;42.658;23.320;2023-04-12T06:52:49;9.25;;;5.63;;
43527;SDS011;52359;42.658;23.320;2023-04-12T06:55:15;10.43;;;4.70;;
43527;SDS011;52359;42.658;23.320;2023-04-12T06:57:41;9.20;;;4.80;;
43527;SDS011;52359;42.658;23.320;2023-04-12T07:00:07;9.93;;;4.07;;
43527;SDS011;52359;42.658;23.320;2023-04-12T07:02:33;5.93;;;3.90;;
43527;SDS011;52359;42.658;23.320;2023-04-12T07:04:59;6.38;;;4.00;;
43527;SDS011;52359;42.658;23.320;2023-04-12T07:07:24;4.97;;;4.25;;
43527;SDS011;52359;42.658;23.320;2023-04-12T07:09:50;4.45;;;3.90;;
43527;SDS011;52359;42.658;23.320;2023-04-12T07:12:16;8.48;;;4.72;;
43527;SDS011;52359;42.658;23.320;2023-04-12T07:14:42;7.80;;;4.10;;
43527;SDS011;52359;42.658;23.320;2023-04-12T07:17:07;5.72;;;4.00;;
43527;SDS011;52359;42.658;23.320;2023-04-12T07:19:33;11.23;;;3.63;;
43527;SDS011;52359;42.658;23.320;2023-04-12T07:22:00;4.07;;;3.25;;
43527;SDS011;52359;42.658;23.320;2023-04-12T07:24:25;13.50;;;4.53;;
43527;SDS011;52359;42.658;23.320;2023-04-12T07:26:51;10.13;;;4.10;;
43527;SDS011;52359;42.658;23.320;2023-04-12T07:29:18;6.27;;;4.03;;
43527;SDS011;52359;42.658;23.320;2023-04-12T07:31:44;8.10;;;3.92;;
43527;SDS011;52359;42.658;23.320;2023-04-12T07:34:10;8.20;;;4.03;;
43527;SDS011;52359;42.658;23.320;2023-04-12T07:36:36;4.78;;;4.28;;
43527;SDS011;52359;42.658;23.320;2023-04-12T07:39:02;11.52;;;4.22;;
43527;SDS011;52359;42.658;23.320;2023-04-12T07:41:28;6.15;;;4.43;;
43527;SDS011;52359;42.658;23.320;2023-04-12T07:43:53;4.05;;;3.42;;
43527;SDS011;52359;42.658;23.320;2023-04-12T07:46:19;11.05;;;3.50;;
43527;SDS011;52359;42.658;23.320;2023-04-12T07:48:45;8.05;;;3.53;;
43527;SDS011;52359;42.658;23.320;2023-04-12T07:51:11;5.22;;;3.20;;
43527;SDS011;52359;42.658;23.320;2023-04-12T07:53:37;3.90;;;2.85;;
43527;SDS011;52359;42.658;23.320;2023-04-12T07:56:03;6.53;;;4.07;;
43527;SDS011;52359;42.658;23.320;2023-04-12T07:58:31;3.42;;;2.45;;
43527;SDS011;52359;42.658;23.320;2023-04-12T08:00:57;4.22;;;3.03;;
43527;SDS011;52359;42.658;23.320;2023-04-12T08:03:23;5.80;;;2.65;;
43527;SDS011;52359;42.658;23.320;2023-04-12T08:05:50;7.85;;;3.22;;
43527;SDS011;52359;42.658;23.320;2023-04-12T08:08:20;6.00;;;3.25;;
43527;SDS011;52359;42.658;23.320;2023-04-12T08:10:46;11.07;;;3.45;;
43527;SDS011;52359;42.658;23.320;2023-04-12T08:13:12;3.08;;;2.47;;
43527;SDS011;52359;42.658;23.320;2023-04-12T08:15:38;3.55;;;2.83;;
43527;SDS011;52359;42.658;23.320;2023-04-12T08:18:04;4.07;;;2.50;;
43527;SDS011;52359;42.658;23.320;2023-04-12T08:20:30;5.57;;;2.42;;
43527;SDS011;52359;42.658;23.320;2023-04-12T08:22:56;5.82;;;2.42;;
43527;SDS011;52359;42.658;23.320;2023-04-12T08:25:22;8.43;;;2.03;;
43527;SDS011;52359;42.658;23.320;2023-04-12T08:27:48;16.63;;;2.63;;
43527;SDS011;52359;42.658;23.320;2023-04-12T08:30:15;5.65;;;2.72;;
43527;SDS011;52359;42.658;23.320;2023-04-12T08:32:41;3.30;;;1.63;;
43527;SDS011;52359;42.658;23.320;2023-04-12T08:35:07;5.22;;;1.80;;
43527;SDS011;52359;42.658;23.320;2023-04-12T08:37:33;4.35;;;1.70;;
43527;SDS011;52359;42.658;23.320;2023-04-12T08:40:00;3.75;;;1.70;;
43527;SDS011;52359;42.658;23.320;2023-04-12T08:42:28;1.98;;;1.73;;
43527;SDS011;52359;42.658;23.320;2023-04-12T08:44:55;13.68;;;1.65;;
43527;SDS011;52359;42.658;23.320;2023-04-12T08:47:21;11.07;;;1.75;;
43527;SDS011;52359;42.658;23.320;2023-04-12T08:49:47;1.85;;;1.58;;
43527;SDS011;52359;42.658;23.320;2023-04-12T08:52:13;9.35;;;1.75;;
43527;SDS011;52359;42.658;23.320;2023-04-12T08:54:39;3.28;;;2.17;;
43527;SDS011;52359;42.658;23.320;2023-04-12T08:57:06;5.60;;;2.40;;
43527;SDS011;52359;42.658;23.320;2023-04-12T08:59:36;2.15;;;1.50;;
43527;SDS011;52359;42.658;23.320;2023-04-12T09:02:03;5.78;;;2.95;;
43527;SDS011;52359;42.658;23.320;2023-04-12T09:04:29;4.70;;;1.95;;
43527;SDS011;52359;42.658;23.320;2023-04-12T09:06:55;3.42;;;2.28;;
43527;SDS011;52359;42.658;23.320;2023-04-12T09:09:42;2.85;;;1.42;;
43527;SDS011;52359;42.658;23.320;2023-04-12T09:12:09;6.05;;;1.98;;
43527;SDS011;52359;42.658;23.320;2023-04-12T09:14:36;8.15;;;2.95;;
43527;SDS011;52359;42.658;23.320;2023-04-12T09:17:03;2.38;;;2.05;;
43527;SDS011;52359;42.658;23.320;2023-04-12T09:19:33;33.88;;;7.32;;
43527;SDS011;52359;42.658;23.320;2023-04-12T09:22:00;12.75;;;3.03;;
43527;SDS011;52359;42.658;23.320;2023-04-12T09:24:27;14.00;;;4.03;;
43527;SDS011;52359;42.658;23.320;2023-04-12T09:27:03;4.15;;;2.33;;
43527;SDS011;52359;42.658;23.320;2023-04-12T09:29:30;26.00;;;2.55;;
43527;SDS011;52359;42.658;23.320;2023-04-12T09:32:01;9.82;;;2.40;;
43527;SDS011;52359;42.658;23.320;2023-04-12T09:34:28;4.15;;;1.75;;
43527;SDS011;52359;42.658;23.320;2023-04-12T09:36:55;3.17;;;2.33;;
43527;SDS011;52359;42.658;23.320;2023-04-12T09:39:33;4.65;;;2.75;;
43527;SDS011;52359;42.658;23.320;2023-04-12T09:42:06;10.60;;;2.40;;
43527;SDS011;52359;42.658;23.320;2023-04-12T09:44:32;2.63;;;2.33;;
43527;SDS011;52359;42.658;23.320;2023-04-12T09:46:59;7.50;;;2.47;;
43527;SDS011;52359;42.658;23.320;2023-04-12T09:49:42;4.72;;;1.80;;
43527;SDS011;52359;42.658;23.320;2023-04-12T09:52:12;4.47;;;1.48;;
43527;SDS011;52359;42.658;23.320;2023-04-12T09:54:42;4.60;;;2.20;;
43527;SDS011;52359;42.658;23.320;2023-04-12T09:57:10;2.60;;;2.13;;
43527;SDS011;52359;42.658;23.320;2023-04-12T09:59:38;2.33;;;1.92;;
43527;SDS011;52359;42.658;23.320;2023-04-12T10:02:14;4.82;;;2.13;;
43527;SDS011;52359;42.658;23.320;2023-04-12T10:04:41;3.38;;;1.40;;
43527;SDS011;52359;42.658;23.320;2023-04-12T10:07:07;7.93;;;1.90;;
43527;SDS011;52359;42.658;23.320;2023-04-12T10:09:33;3.40;;;1.58;;
43527;SDS011;52359;42.658;23.320;2023-04-12T10:12:00;3.58;;;1.65;;
43527;SDS011;52359;42.658;23.320;2023-04-12T10:14:27;3.80;;;1.25;;
43527;SDS011;52359;42.658;23.320;2023-04-12T10:16:58;19.65;;;1.33;;
43527;SDS011;52359;42.658;23.320;2023-04-12T10:19:25;4.85;;;1.27;;
43527;SDS011;52359;42.658;23.320;2023-04-12T10:21:51;10.68;;;1.48;;
43527;SDS011;52359;42.658;23.320;2023-04-12T10:24:21;4.13;;;1.55;;
43527;SDS011;52359;42.658;23.320;2023-04-12T10:26:48;1.20;;;1.10;;
43527;SDS011;52359;42.658;23.320;2023-04-12T10:29:24;5.00;;;1.30;;
43527;SDS011;52359;42.658;23.320;2023-04-12T10:31:51;5.68;;;1.38;;
43527;SDS011;52359;42.658;23.320;2023-04-12T10:34:41;2.33;;;1.52;;
43527;SDS011;52359;42.658;23.320;2023-04-12T10:37:06;3.45;;;1.70;;
43527;SDS011;52359;42.658;23.320;2023-04-12T10:39:36;18.58;;;2.30;;
43527;SDS011;52359;42.658;23.320;2023-04-12T10:42:21;17.00;;;1.75;;
43527;SDS011;52359;42.658;23.320;2023-04-12T10:44:48;5.90;;;1.85;;
43527;SDS011;52359;42.658;23.320;2023-04-12T10:47:16;18.25;;;2.50;;
43527;SDS011;52359;42.658;23.320;2023-04-12T10:53:33;5.65;;;3.15;;
43527;SDS011;52359;42.658;23.320;2023-04-12T10:55:40;10.43;;;2.20;;
43527;SDS011;52359;42.658;23.320;2023-04-12T10:58:07;6.22;;;1.67;;
43527;SDS011;52359;42.658;23.320;2023-04-12T11:01:08;2.33;;;1.60;;
43527;SDS011;52359;42.658;23.320;2023-04-12T11:03:32;6.20;;;1.40;;
43527;SDS011;52359;42.658;23.320;2023-04-12T11:05:59;8.13;;;2.15;;
43527;SDS011;52359;42.658;23.320;2023-04-12T11:08:27;6.65;;;1.63;;
43527;SDS011;52359;42.658;23.320;2023-04-12T11:11:03;5.13;;;1.30;;
43527;SDS011;52359;42.658;23.320;2023-04-12T11:13:37;4.95;;;1.42;;
43527;SDS011;52359;42.658;23.320;2023-04-12T11:16:04;8.00;;;1.50;;
43527;SDS011;52359;42.658;23.320;2023-04-12T11:18:33;10.18;;;1.50;;
43527;SDS011;52359;42.658;23.320;2023-04-12T11:21:00;8.32;;;2.40;;
43527;SDS011;52359;42.658;23.320;2023-04-12T11:23:27;29.05;;;1.95;;
43527;SDS011;52359;42.658;23.320;2023-04-12T11:25:53;3.55;;;1.80;;
43527;SDS011;52359;42.658;23.320;2023-04-12T11:28:21;24.42;;;2.05;;
43527;SDS011;52359;42.658;23.320;2023-04-12T11:30:56;5.47;;;1.50;;
43527;SDS011;52359;42.658;23.320;2023-04-12T11:35:57;6.32;;;1.75;;
43527;SDS011;52359;42.658;23.320;2023-04-12T11:38:24;7.45;;;1.52;;
43527;SDS011;52359;42.658;23.320;2023-04-12T11:40:50;5.05;;;1.20;;
43527;SDS011;52359;42.658;23.320;2023-04-12T11:43:19;5.00;;;1.27;;
43527;SDS011;52359;42.658;23.320;2023-04-12T11:45:45;10.77;;;1.73;;
43527;SDS011;52359;42.658;23.320;2023-04-12T11:48:11;10.13;;;1.42;;
43527;SDS011;52359;42.658;23.320;2023-04-12T11:50:38;20.52;;;1.60;;
43527;SDS011;52359;42.658;23.320;2023-04-12T11:53:11;15.38;;;1.80;;
43527;SDS011;52359;42.658;23.320;2023-04-12T11:55:37;8.00;;;1.52;;
43527;SDS011;52359;42.658;23.320;2023-04-12T11:58:03;15.85;;;2.15;;
43527;SDS011;52359;42.658;23.320;2023-04-12T12:00:29;13.02;;;1.67;;
43527;SDS011;52359;42.658;23.320;2023-04-12T12:02:56;3.45;;;1.13;;
43527;SDS011;52359;42.658;23.320;2023-04-12T12:05:22;10.98;;;1.67;;
43527;SDS011;52359;42.658;23.320;2023-04-12T12:07:48;3.70;;;1.10;;
43527;SDS011;52359;42.658;23.320;2023-04-12T12:10:16;9.90;;;1.67;;
43527;SDS011;52359;42.658;23.320;2023-04-12T12:12:42;18.42;;;1.90;;
43527;SDS011;52359;42.658;23.320;2023-04-12T12:15:09;5.28;;;1.08;;
43527;SDS011;52359;42.658;23.320;2023-04-12T12:17:35;1.52;;;1.15;;
43527;SDS011;52359;42.658;23.320;2023-04-12T12:20:04;6.65;;;1.02;;
43527;SDS011;52359;42.658;23.320;2023-04-12T12:22:31;3.75;;;0.80;;
43527;SDS011;52359;42.658;23.320;2023-04-12T12:24:57;16.63;;;1.30;;
43527;SDS011;52359;42.658;23.320;2023-04-12T12:29:53;8.35;;;1.60;;
43527;SDS011;52359;42.658;23.320;2023-04-12T12:32:19;15.93;;;1.70;;
43527;SDS011;52359;42.658;23.320;2023-04-12T12:34:53;6.38;;;1.15;;
43527;SDS011;52359;42.658;23.320;2023-04-12T12:37:23;62.15;;;5.00;;
43527;SDS011;52359;42.658;23.320;2023-04-12T12:42:48;25.02;;;2.17;;
43527;SDS011;52359;42.658;23.320;2023-04-12T12:45:15;7.65;;;1.42;;
43527;SDS011;52359;42.658;23.320;2023-04-12T12:48:00;2.10;;;1.00;;
43527;SDS011;52359;42.658;23.320;2023-04-12T12:50:30;1.23;;;1.10;;
43527;SDS011;52359;42.658;23.320;2023-04-12T12:52:56;9.60;;;1.67;;
43527;SDS011;52359;42.658;23.320;2023-04-12T12:55:23;6.18;;;1.45;;
43527;SDS011;52359;42.658;23.320;2023-04-12T12:57:54;1.95;;;1.10;;
43527;SDS011;52359;42.658;23.320;2023-04-12T13:00:24;6.00;;;1.27;;
43527;SDS011;52359;42.658;23.320;2023-04-12T13:02:51;5.53;;;1.67;;
43527;SDS011;52359;42.658;23.320;2023-04-12T13:05:17;3.95;;;1.45;;
43527;SDS011;52359;42.658;23.320;2023-04-12T13:07:44;4.65;;;1.15;;
43527;SDS011;52359;42.658;23.320;2023-04-12T13:10:10;3.25;;;0.95;;
43527;SDS011;52359;42.658;23.320;2023-04-12T13:12:36;5.47;;;1.27;;
43527;SDS011;52359;42.658;23.320;2023-04-12T13:15:02;1.10;;;1.00;;
43527;SDS011;52359;42.658;23.320;2023-04-12T13:17:29;3.67;;;1.13;;
43527;SDS011;52359;42.658;23.320;2023-04-12T13:19:55;1.42;;;1.10;;
43527;SDS011;52359;42.658;23.320;2023-04-12T13:22:21;10.10;;;1.20;;
43527;SDS011;52359;42.658;23.320;2023-04-12T13:24:48;9.65;;;1.35;;
43527;SDS011;52359;42.658;23.320;2023-04-12T13:27:14;8.35;;;1.17;;
43527;SDS011;52359;42.658;23.320;2023-04-12T13:29:41;5.93;;;1.15;;
43527;SDS011;52359;42.658;23.320;2023-04-12T13:32:07;13.52;;;1.27;;
43527;SDS011;52359;42.658;23.320;2023-04-12T13:34:33;1.83;;;1.10;;
43527;SDS011;52359;42.658;23.320;2023-04-12T13:36:59;5.65;;;1.27;;
43527;SDS011;52359;42.658;23.320;2023-04-12T13:39:25;3.97;;;0.93;;
43527;SDS011;52359;42.658;23.320;2023-04-12T13:41:52;5.63;;;1.05;;
43527;SDS011;52359;42.658;23.320;2023-04-12T13:44:18;2.03;;;1.65;;
43527;SDS011;52359;42.658;23.320;2023-04-12T13:46:44;1.17;;;1.08;;
43527;SDS011;52359;42.658;23.320;2023-04-12T13:49:10;4.55;;;1.30;;
43527;SDS011;52359;42.658;23.320;2023-04-12T13:51:36;1.10;;;0.98;;
43527;SDS011;52359;42.658;23.320;2023-04-12T13:54:02;1.33;;;1.15;;
43527;SDS011;52359;42.658;23.320;2023-04-12T13:56:28;5.47;;;1.13;;
43527;SDS011;52359;42.658;23.320;2023-04-12T13:58:55;2.92;;;1.23;;
43527;SDS011;52359;42.658;23.320;2023-04-12T14:01:22;2.45;;;1.17;;
43527;SDS011;52359;42.658;23.320;2023-04-12T14:03:49;2.10;;;1.02;;
43527;SDS011;52359;42.658;23.320;2023-04-12T14:06:17;5.45;;;1.35;;
43527;SDS011;52359;42.658;23.320;2023-04-12T14:08:43;3.15;;;1.35;;
43527;SDS011;52359;42.658;23.320;2023-04-12T14:11:09;1.15;;;1.05;;
43527;SDS011;52359;42.658;23.320;2023-04-12T14:13:35;2.65;;;1.60;;
43527;SDS011;52359;42.658;23.320;2023-04-12T14:16:01;1.52;;;1.33;;
43527;SDS011;52359;42.658;23.320;2023-04-12T14:18:27;2.50;;;0.90;;
43527;SDS011;52359;42.658;23.320;2023-04-12T14:20:53;1.60;;;1.20;;
43527;SDS011;52359;42.658;23.320;2023-04-12T14:23:21;3.53;;;1.30;;
43527;SDS011;52359;42.658;23.320;2023-04-12T14:25:49;2.20;;;0.90;;
43527;SDS011;52359;42.658;23.320;2023-04-12T14:28:15;4.18;;;1.08;;
43527;SDS011;52359;42.658;23.320;2023-04-12T14:30:42;2.72;;;1.20;;
43527;SDS011;52359;42.658;23.320;2023-04-12T14:33:08;2.45;;;1.00;;
43527;SDS011;52359;42.658;23.320;2023-04-12T14:35:34;4.78;;;1.13;;
43527;SDS011;52359;42.658;23.320;2023-04-12T14:38:00;2.10;;;1.00;;
43527;SDS011;52359;42.658;23.320;2023-04-12T14:40:26;2.10;;;1.33;;
43527;SDS011;52359;42.658;23.320;2023-04-12T14:42:52;2.15;;;1.42;;
43527;SDS011;52359;42.658;23.320;2023-04-12T14:45:18;1.35;;;1.15;;
43527;SDS011;52359;42.658;23.320;2023-04-12T14:47:45;7.15;;;1.20;;
43527;SDS011;52359;42.658;23.320;2023-04-12T14:50:11;1.17;;;0.95;;
43527;SDS011;52359;42.658;23.320;2023-04-12T14:52:37;1.95;;;1.27;;
43527;SDS011;52359;42.658;23.320;2023-04-12T14:55:05;5.28;;;0.90;;
43527;SDS011;52359;42.658;23.320;2023-04-12T14:57:32;4.53;;;2.83;;
43527;SDS011;52359;42.658;23.320;2023-04-12T14:59:59;3.63;;;1.45;;
43527;SDS011;52359;42.658;23.320;2023-04-12T15:02:25;1.23;;;1.02;;
43527;SDS011;52359;42.658;23.320;2023-04-12T15:04:51;2.13;;;0.98;;
